Time;durP1;ratioP1;P1;durP2;ratioP2;P2;SDS_P1;SDS_P2;PMS_P1;PMS_P2;Temp;Humidity;BMP_temperature;BMP_pressure;BME280_temperature;BME280_humidity;BME280_pressure;Samples;Min_cycle;Max_cycle;Signal;HPM_P1;HPM_P2
2023/04/12 00:00:43;;;;;;;9.27;2.60;;;;;;;6.40;54.56;99696.16;10431242;28;20036;-76
2023/04/12 00:05:47;;;;;;;9.90;2.95;;;;;;;6.36;54.49;99678.69;10425550;28;20496;-76
2023/04/12 00:10:51;;;;;;;9.48;2.92;;;;;;;6.25;55.36;99661.78;10449874;28;20065;-75
2023/04/12 00:15:54;;;;;;;7.15;3.22;;;;;;;6.18;55.45;99650.72;10425356;28;20072;-76
2023/04/12 00:20:57;;;;;;;8.23;3.55;;;;;;;6.29;55.21;99640.09;10422154;28;20143;-76
2023/04/12 00:26:01;;;;;;;8.05;3.00;;;;;;;6.34;55.06;99623.75;10436006;28;20120;-75
2023/04/12 00:31:04;;;;;;;8.38;2.70;;;;;;;6.40;55.09;99613.47;10425969;28;20486;-75
2023/04/12 00:36:09;;;;;;;9.40;3.10;;;;;;;6.31;55.21;99603.50;10406002;28;20053;-76
2023/04/12 00:41:14;;;;;;;8.95;3.58;;;;;;;6.46;54.95;99585.47;10436958;28;20043;-76
2023/04/12 00:46:18;;;;;;;6.63;3.00;;;;;;;6.54;54.64;99575.06;10412855;28;20045;-76
2023/04/12 00:51:21;;;;;;;10.63;3.50;;;;;;;6.58;54.94;99583.66;10424099;28;20052;-75
2023/04/12 00:56:27;;;;;;;7.80;3.33;;;;;;;6.53;55.15;99567.19;10421490;28;20520;-76
2023/04/12 01:01:30;;;;;;;7.32;3.17;;;;;;;6.52;55.45;99554.81;10393345;28;20045;-75
2023/04/12 01:06:45;;;;;;;6.57;2.70;;;;;;;6.55;55.09;99558.06;10413511;28;20055;-76
2023/04/12 01:12:00;;;;;;;5.10;3.47;;;;;;;6.53;55.07;99549.34;10424693;28;20414;-75
2023/04/12 01:17:07;;;;;;;8.85;2.85;;;;;;;6.56;55.47;99545.59;10412991;28;20041;-75
2023/04/12 01:22:17;;;;;;;10.90;3.38;;;;;;;6.44;55.37;99533.19;10409354;28;20044;-77
2023/04/12 01:27:34;;;;;;;9.98;2.72;;;;;;;6.58;55.62;99519.63;10410893;28;20045;-76
2023/04/12 01:32:38;;;;;;;8.60;2.75;;;;;;;6.52;55.92;99520.97;10410355;28;20120;-75
2023/04/12 01:37:42;;;;;;;11.38;3.45;;;;;;;6.60;56.08;99499.00;10422933;28;20049;-76
2023/04/12 01:42:46;;;;;;;10.63;2.78;;;;;;;6.61;56.15;99487.41;10414037;28;20103;-75
2023/04/12 01:47:49;;;;;;;7.90;2.50;;;;;;;6.43;56.65;99462.16;10437925;28;20040;-75
2023/04/12 01:53:01;;;;;;;6.45;2.85;;;;;;;6.47;56.55;99453.75;10420974;28;20475;-76
2023/04/12 01:58:10;;;;;;;7.63;2.75;;;;;;;6.45;56.36;99455.72;10424920;28;20068;-76
2023/04/12 02:03:13;;;;;;;8.23;2.75;;;;;;;6.60;56.29;99459.84;10408633;28;20041;-77
2023/04/12 02:08:17;;;;;;;6.07;2.65;;;;;;;6.58;56.17;99451.13;10410136;28;20042;-76
2023/04/12 02:13:22;;;;;;;7.20;3.00;;;;;;;6.68;56.01;99445.03;10474737;28;20033;-75
2023/04/12 02:18:25;;;;;;;8.80;3.15;;;;;;;6.62;56.16;99438.38;10417495;28;20464;-75
2023/04/12 02:23:28;;;;;;;8.20;3.05;;;;;;;6.49;56.88;99426.97;10421905;28;20531;-75
2023/04/12 02:28:33;;;;;;;6.00;2.97;;;;;;;6.44;57.42;99416.66;10435579;28;20053;-77
2023/04/12 02:33:36;;;;;;;7.88;2.85;;;;;;;6.57;57.25;99400.53;10475771;22;20131;-75
2023/04/12 02:38:43;;;;;;;7.90;2.88;;;;;;;6.60;57.11;99401.13;10473536;28;20168;-75
2023/04/12 02:43:48;;;;;;;9.52;2.83;;;;;;;6.61;57.28;99391.34;10489605;28;20087;-75
2023/04/12 02:48:51;;;;;;;11.02;3.15;;;;;;;6.57;57.51;99377.38;10504370;28;20048;-75
2023/04/12 02:53:56;;;;;;;10.27;2.88;;;;;;;6.56;57.89;99361.50;10495077;28;20085;-75
2023/04/12 02:59:05;;;;;;;9.18;2.95;;;;;;;6.50;58.10;99359.28;10501254;28;20134;-75
2023/04/12 03:04:31;;;;;;;7.93;3.13;;;;;;;6.59;57.93;99353.25;10513905;28;20055;-75
2023/04/12 03:09:37;;;;;;;13.13;2.90;;;;;;;6.74;57.58;99349.31;10503801;28;20402;-75
2023/04/12 03:14:42;;;;;;;7.10;2.95;;;;;;;6.77;57.56;99342.88;10517586;28;20056;-75
2023/04/12 03:19:45;;;;;;;6.10;2.55;;;;;;;6.83;57.35;99327.22;10493377;28;20068;-75
2023/04/12 03:24:54;;;;;;;6.65;2.90;;;;;;;6.93;57.47;99329.16;10502242;28;20391;-75
2023/04/12 03:29:59;;;;;;;6.45;2.22;;;;;;;6.91;57.41;99307.94;10499845;28;20079;-75
2023/04/12 03:35:03;;;;;;;5.80;2.40;;;;;;;6.95;57.44;99297.84;10499895;28;20522;-75
2023/04/12 03:40:08;;;;;;;9.40;2.40;;;;;;;7.08;57.38;99293.19;10497731;28;20055;-75
2023/04/12 03:45:12;;;;;;;8.57;2.25;;;;;;;7.14;57.91;99298.00;10501945;28;20040;-76
2023/04/12 03:50:19;;;;;;;7.05;1.70;;;;;;;7.30;58.28;99286.03;10489136;28;20086;-75
2023/04/12 03:55:29;;;;;;;6.13;1.33;;;;;;;7.37;58.97;99269.34;10503775;28;20113;-75
2023/04/12 04:00:36;;;;;;;4.18;1.15;;;;;;;7.44;60.45;99258.97;10499076;28;20040;-75
2023/04/12 04:05:42;;;;;;;4.82;1.30;;;;;;;7.53;62.21;99244.81;10510831;28;20086;-75
2023/04/12 04:10:46;;;;;;;5.25;1.52;;;;;;;7.41;63.22;99221.84;10501567;28;20538;-75
2023/04/12 04:15:58;;;;;;;7.35;1.52;;;;;;;7.26;64.38;99216.81;10485585;28;20040;-75
2023/04/12 04:21:02;;;;;;;;;;;;;;;7.16;65.55;99212.41;10497191;28;20083;-75
2023/04/12 04:26:09;;;;;;;1.70;1.13;;;;;;;6.95;66.03;99193.72;10494210;28;20006;-75
2023/04/12 04:31:21;;;;;;;7.20;1.67;;;;;;;7.09;65.96;99177.38;10491298;28;20045;-75
2023/04/12 04:36:25;;;;;;;9.00;1.73;;;;;;;7.13;64.67;99162.78;10497751;28;20041;-75
2023/04/12 04:41:33;;;;;;;4.85;1.60;;;;;;;7.12;64.00;99166.41;10494312;28;20048;-76
2023/04/12 04:46:38;;;;;;;8.00;1.92;;;;;;;7.42;62.87;99140.72;10487437;28;20040;-75
2023/04/12 04:51:41;;;;;;;5.80;1.60;;;;;;;7.35;62.29;99131.53;10513078;28;20109;-76
2023/04/12 04:56:47;;;;;;;11.38;1.65;;;;;;;7.46;62.11;99108.25;10494874;28;20064;-75
2023/04/12 05:01:53;;;;;;;8.50;1.70;;;;;;;7.46;62.06;99104.72;10494425;28;20048;-75
2023/04/12 05:06:56;;;;;;;3.90;1.88;;;;;;;7.23;61.14;99102.25;10502719;28;20056;-75
2023/04/12 05:12:01;;;;;;;4.50;1.60;;;;;;;7.54;60.92;99094.19;10505469;28;20059;-75
2023/04/12 05:17:06;;;;;;;4.30;2.20;;;;;;;7.57;60.66;99095.75;10497268;28;20040;-75
2023/04/12 05:22:08;;;;;;;5.75;1.90;;;;;;;7.67;60.53;99093.94;10493236;28;20064;-75
2023/04/12 05:27:12;;;;;;;9.45;1.65;;;;;;;7.62;60.98;99086.34;10510467;28;20070;-75
2023/04/12 05:32:16;;;;;;;9.52;1.77;;;;;;;7.71;60.56;99076.66;10516290;28;20048;-75
2023/04/12 05:37:19;;;;;;;2.90;1.55;;;;;;;7.70;61.54;99051.75;10506529;28;20036;-75
2023/04/12 05:42:22;;;;;;;7.78;1.98;;;;;;;7.86;61.03;99058.38;10519101;28;20434;-75
2023/04/12 05:47:26;;;;;;;5.60;1.35;;;;;;;8.00;60.95;99041.94;10499944;28;20041;-75
2023/04/12 05:52:31;;;;;;;7.13;1.63;;;;;;;8.05;60.66;99026.31;10495508;28;20052;-75
2023/04/12 05:57:35;;;;;;;5.93;1.70;;;;;;;7.85;61.40;99028.16;10502876;28;20506;-76
2023/04/12 06:02:40;;;;;;;5.10;1.75;;;;;;;8.22;61.03;99023.91;10511659;28;20047;-75
2023/04/12 06:07:45;;;;;;;3.38;1.08;;;;;;;8.24;61.06;99006.72;10512758;28;20044;-75
2023/04/12 06:12:48;;;;;;;4.63;1.55;;;;;;;8.23;61.29;99002.38;10501042;28;20044;-75
2023/04/12 06:17:54;;;;;;;5.57;1.80;;;;;;;8.34;61.41;99002.22;10502854;28;20151;-75
2023/04/12 06:22:57;;;;;;;4.45;1.40;;;;;;;8.07;62.12;98999.44;10509180;28;20045;-75
2023/04/12 06:28:00;;;;;;;3.92;1.15;;;;;;;8.07;62.42;98984.22;10525452;28;20401;-75
2023/04/12 06:33:04;;;;;;;6.13;1.60;;;;;;;8.35;62.32;98987.00;10493539;28;20174;-75
2023/04/12 06:38:07;;;;;;;5.95;1.65;;;;;;;8.50;61.79;98974.91;10498892;28;20044;-76
2023/04/12 06:43:10;;;;;;;4.55;1.25;;;;;;;8.36;62.49;98954.75;10493300;28;20383;-75
2023/04/12 06:48:14;;;;;;;3.85;1.60;;;;;;;8.42;62.11;98964.03;10497825;28;20052;-75
2023/04/12 06:53:17;;;;;;;2.10;1.05;;;;;;;8.61;62.22;98939.06;10487449;28;20548;-75
2023/04/12 06:58:20;;;;;;;6.45;1.55;;;;;;;8.46;62.69;98951.25;10491432;28;20040;-75
2023/04/12 07:03:27;;;;;;;1.58;1.05;;;;;;;8.16;65.08;98929.03;10486041;28;20104;-74
2023/04/12 07:08:30;;;;;;;3.83;1.60;;;;;;;8.10;66.64;98916.25;10490562;28;20040;-74
2023/04/12 07:13:33;;;;;;;2.60;1.70;;;;;;;7.63;68.65;98909.00;10484785;28;20048;-74
2023/04/12 07:18:38;;;;;;;4.50;1.55;;;;;;;7.81;69.27;98903.75;10520089;28;20115;-74
2023/04/12 07:23:42;;;;;;;5.25;2.30;;;;;;;7.90;70.21;98892.22;10517512;28;20094;-74
2023/04/12 07:28:45;;;;;;;3.65;1.80;;;;;;;7.94;71.11;98890.09;10511203;28;20130;-75
2023/04/12 07:33:49;;;;;;;4.28;2.25;;;;;;;7.89;71.61;98890.50;10514917;28;20487;-74
2023/04/12 07:38:54;;;;;;;3.95;1.95;;;;;;;7.78;71.79;98882.66;10516276;28;20093;-75
2023/04/12 07:43:57;;;;;;;2.70;1.88;;;;;;;7.70;73.30;98874.50;10516149;28;20079;-74
2023/04/12 07:49:02;;;;;;;5.35;2.40;;;;;;;7.71;74.35;98857.50;10523144;28;20128;-74
2023/04/12 07:54:05;;;;;;;4.15;2.65;;;;;;;7.87;75.37;98852.41;10509722;28;20040;-75
2023/04/12 07:59:08;;;;;;;6.28;2.42;;;;;;;7.87;75.78;98830.16;10503332;28;20048;-75
2023/04/12 08:04:12;;;;;;;4.88;2.53;;;;;;;7.63;76.29;98839.50;10516912;28;20032;-75
2023/04/12 08:09:15;;;;;;;9.27;2.42;;;;;;;7.97;75.71;98822.13;10507759;28;20102;-75
2023/04/12 08:14:18;;;;;;;3.88;2.42;;;;;;;7.59;77.20;98823.91;10517372;28;20063;-75
2023/04/12 08:19:22;;;;;;;4.22;2.85;;;;;;;7.72;78.20;98817.25;10506949;28;20068;-75
2023/04/12 08:24:24;;;;;;;2.80;2.35;;;;;;;7.90;77.52;98806.66;10508631;28;20118;-75
2023/04/12 08:29:27;;;;;;;;;;;;;;;7.82;78.56;98817.25;10514858;28;20469;-75
2023/04/12 08:34:31;;;;;;;4.43;2.65;;;;;;;8.22;78.81;98802.72;10505118;28;19920;-75
2023/04/12 08:39:34;;;;;;;3.40;3.10;;;;;;;7.98;78.55;98815.78;10511548;28;20127;-75
2023/04/12 08:44:38;;;;;;;;;;;;;;;7.84;78.82;98799.22;10518426;28;20043;-75
2023/04/12 08:49:42;;;;;;;3.20;2.13;;;;;;;7.58;78.29;98790.16;10512586;28;19959;-75
2023/04/12 08:54:45;;;;;;;5.38;2.47;;;;;;;7.51;79.15;98776.50;10513153;28;20402;-75
2023/04/12 08:59:49;;;;;;;;;;;;;;;7.65;78.53;98775.22;10513317;28;20072;-75
2023/04/12 09:04:54;;;;;;;5.47;2.35;;;;;;;7.97;78.61;98777.50;10504460;28;19924;-74
2023/04/12 09:09:58;;;;;;;2.78;1.85;;;;;;;8.31;78.09;98752.84;10518676;28;20044;-77
2023/04/12 09:15:08;;;;;;;2.47;1.48;;;;;;;7.92;77.19;98753.03;10508991;28;20128;-74
2023/04/12 09:20:25;;;;;;;3.97;1.70;;;;;;;8.39;78.25;98750.25;10520376;28;20039;-74
2023/04/12 09:25:47;;;;;;;2.97;1.50;;;;;;;8.66;77.08;98725.31;10523195;28;20041;-76
2023/04/12 09:30:52;;;;;;;2.67;1.20;;;;;;;8.47;76.92;98712.09;10511657;28;20040;-75
2023/04/12 09:36:00;;;;;;;3.05;1.58;;;;;;;8.56;76.40;98728.09;10524537;28;20056;-74
2023/04/12 09:41:16;;;;;;;1.30;0.82;;;;;;;8.75;75.79;98724.44;10510534;28;20496;-74
2023/04/12 09:46:22;;;;;;;1.35;1.25;;;;;;;9.17;74.98;98696.97;10519122;28;20032;-75
2023/04/12 09:51:28;;;;;;;3.15;1.17;;;;;;;8.79;74.67;98690.97;10532869;28;20120;-76
2023/04/12 09:56:33;;;;;;;2.45;1.27;;;;;;;9.57;73.41;98686.66;10529699;28;20455;-74
2023/04/12 10:01:38;;;;;;;1.75;0.98;;;;;;;9.89;71.01;98684.19;10536540;28;20064;-75
2023/04/12 10:06:44;;;;;;;0.60;0.60;;;;;;;10.05;70.13;98706.72;10518109;28;20044;-73
2023/04/12 10:11:50;;;;;;;1.45;0.88;;;;;;;10.22;69.71;98665.50;10527893;28;20067;-75
2023/04/12 10:16:56;;;;;;;1.17;0.60;;;;;;;10.03;68.53;98688.09;10534547;28;20040;-74
2023/04/12 10:22:01;;;;;;;3.35;1.17;;;;;;;9.83;69.55;98651.78;10525813;28;20120;-73
2023/04/12 10:27:05;;;;;;;1.20;0.50;;;;;;;9.90;69.60;98658.19;10526791;28;20181;-73
2023/04/12 10:32:21;;;;;;;4.00;1.02;;;;;;;10.36;68.83;98651.44;10512505;28;20047;-74
2023/04/12 10:37:57;;;;;;;2.53;1.00;;;;;;;9.58;69.98;98650.84;10513296;28;20422;-74
2023/04/12 10:43:26;;;;;;;0.88;0.70;;;;;;;9.88;70.10;98634.25;10522455;28;20044;-74
2023/04/12 10:48:31;;;;;;;1.20;1.00;;;;;;;9.49;71.46;98634.72;10514444;28;20067;-74
2023/04/12 10:53:35;;;;;;;1.30;0.98;;;;;;;9.77;73.29;98629.16;10512217;28;20105;-74
2023/04/12 10:58:55;;;;;;;1.40;0.70;;;;;;;9.70;72.89;98638.81;10503001;28;20063;-75
2023/04/12 11:04:23;;;;;;;0.73;0.60;;;;;;;9.80;74.33;98630.66;10489389;28;20040;-74
2023/04/12 11:09:43;;;;;;;0.77;0.75;;;;;;;9.99;73.52;98629.59;10509749;28;20588;-75
2023/04/12 11:15:06;;;;;;;1.48;0.90;;;;;;;9.89;74.55;98621.66;10529208;28;20040;-74
2023/04/12 11:20:27;;;;;;;0.90;0.90;;;;;;;9.66;73.62;98624.06;10509563;28;20048;-75
2023/04/12 11:25:31;;;;;;;0.85;0.80;;;;;;;9.75;73.32;98617.72;10533445;28;20036;-75
2023/04/12 11:30:34;;;;;;;1.70;0.70;;;;;;;9.91;72.82;98614.31;10525684;28;20162;-75
2023/04/12 11:35:37;;;;;;;0.40;0.40;;;;;;;9.67;72.78;98609.66;10530668;28;20506;-74
2023/04/12 11:40:42;;;;;;;0.98;0.80;;;;;;;10.12;72.80;98595.06;10534005;28;20192;-75
2023/04/12 11:45:45;;;;;;;2.45;1.10;;;;;;;10.20;72.06;98581.66;10511734;28;20116;-74
2023/04/12 11:50:48;;;;;;;0.82;0.82;;;;;;;10.34;70.38;98596.28;10515777;28;20445;-74
2023/04/12 11:56:11;;;;;;;1.23;0.85;;;;;;;10.09;70.61;98598.06;10518312;28;20047;-74
2023/04/12 12:01:14;;;;;;;1.65;0.93;;;;;;;9.98;71.55;98590.34;10508638;28;20474;-74
2023/04/12 12:06:18;;;;;;;2.60;1.08;;;;;;;10.64;70.56;98584.06;10526260;28;20060;-74
2023/04/12 12:11:23;;;;;;;2.50;0.90;;;;;;;10.76;70.33;98585.38;10526709;28;20044;-75
2023/04/12 12:16:27;;;;;;;1.30;0.90;;;;;;;10.69;70.15;98586.22;10520696;28;20072;-75
2023/04/12 12:21:31;;;;;;;0.82;0.80;;;;;;;10.60;69.85;98588.06;10530777;28;20109;-74
2023/04/12 12:26:36;;;;;;;0.95;0.95;;;;;;;10.48;70.19;98574.16;10526018;28;20067;-75
2023/04/12 12:31:46;;;;;;;1.10;0.98;;;;;;;10.48;70.58;98586.75;10533009;28;20036;-75
2023/04/12 12:36:55;;;;;;;1.20;1.10;;;;;;;10.27;71.33;98565.75;10528391;28;20032;-74
2023/04/12 12:42:01;;;;;;;1.20;1.10;;;;;;;10.37;71.87;98561.06;10521311;28;20066;-74
2023/04/12 12:47:04;;;;;;;1.10;1.00;;;;;;;10.32;71.86;98569.59;10531197;28;20040;-74
2023/04/12 12:52:16;;;;;;;1.40;1.00;;;;;;;10.51;71.77;98567.59;10521391;28;20579;-74
2023/04/12 12:57:21;;;;;;;1.02;0.93;;;;;;;10.55;71.49;98568.94;10525398;28;20036;-74
2023/04/12 13:02:24;;;;;;;1.00;1.00;;;;;;;10.86;70.90;98555.66;10518754;28;20067;-73
2023/04/12 13:07:27;;;;;;;0.75;0.75;;;;;;;10.72;71.33;98562.53;10507852;28;20048;-73
2023/04/12 13:12:31;;;;;;;0.95;0.95;;;;;;;10.57;72.01;98562.38;10515285;28;20040;-74
2023/04/12 13:17:34;;;;;;;1.30;1.20;;;;;;;10.45;73.37;98569.13;10516563;28;20075;-74
2023/04/12 13:22:37;;;;;;;1.80;1.70;;;;;;;10.25;75.41;98563.22;10503191;28;20146;-74
2023/04/12 13:27:41;;;;;;;1.90;1.80;;;;;;;10.31;76.30;98554.53;10490708;28;20055;-74
2023/04/12 13:32:44;;;;;;;2.50;2.10;;;;;;;10.30;76.24;98544.78;10481651;28;20664;-74
2023/04/12 13:37:47;;;;;;;2.13;1.92;;;;;;;10.32;76.38;98539.25;10485558;28;20040;-74
2023/04/12 13:42:51;;;;;;;2.40;2.20;;;;;;;10.39;76.10;98542.94;10489366;28;21564;-74
2023/04/12 13:47:54;;;;;;;2.17;2.00;;;;;;;10.47;76.57;98540.25;10485169;28;20056;-74
2023/04/12 13:52:57;;;;;;;2.38;1.85;;;;;;;10.48;75.89;98533.06;10485622;28;21284;-74
2023/04/12 13:58:01;;;;;;;1.90;1.80;;;;;;;10.54;74.58;98535.06;10474666;28;20112;-75
2023/04/12 14:03:04;;;;;;;2.28;2.08;;;;;;;10.46;74.84;98530.53;10471150;28;20520;-74
2023/04/12 14:08:07;;;;;;;2.53;2.13;;;;;;;10.35;76.11;98534.38;10479402;28;20529;-74
2023/04/12 14:13:11;;;;;;;2.53;2.33;;;;;;;10.16;76.99;98534.72;10465927;28;20495;-74
2023/04/12 14:18:14;;;;;;;2.33;2.08;;;;;;;10.26;76.36;98529.19;10473665;28;20182;-74
2023/04/12 14:23:17;;;;;;;2.50;2.30;;;;;;;10.23;76.13;98526.81;10487364;28;20048;-74
2023/04/12 14:28:23;;;;;;;3.65;2.63;;;;;;;10.08;74.71;98508.72;10478506;28;20044;-74
2023/04/12 14:33:25;;;;;;;3.20;2.67;;;;;;;10.27;73.28;98507.56;10479697;28;20062;-74
2023/04/12 14:38:28;;;;;;;3.15;2.85;;;;;;;10.73;71.16;98494.41;10485318;28;21256;-75
2023/04/12 14:43:32;;;;;;;2.80;2.53;;;;;;;11.11;69.15;98508.06;10471601;28;20048;-75
2023/04/12 14:48:35;;;;;;;3.10;2.80;;;;;;;11.17;68.51;98518.16;10486515;28;20054;-75
2023/04/12 14:53:38;;;;;;;3.35;3.10;;;;;;;10.96;68.79;98516.00;10478107;28;21361;-74
2023/04/12 14:58:42;;;;;;;3.45;3.15;;;;;;;10.95;69.14;98533.13;10475938;28;20050;-75
2023/04/12 15:03:46;;;;;;;4.80;4.40;;;;;;;10.76;71.01;98528.97;10485709;28;20483;-75
2023/04/12 15:08:53;;;;;;;5.15;4.47;;;;;;;11.44;68.67;98534.84;10482770;28;20114;-75
2023/04/12 15:13:58;;;;;;;5.28;4.88;;;;;;;11.37;68.09;98532.00;10486585;28;20067;-74
2023/04/12 15:19:01;;;;;;;5.82;5.35;;;;;;;12.09;66.85;98529.06;10472214;28;20071;-74
2023/04/12 15:24:15;;;;;;;5.60;5.10;;;;;;;12.39;65.88;98529.22;10476655;28;20052;-75
2023/04/12 15:29:21;;;;;;;5.32;4.88;;;;;;;12.30;65.39;98522.25;10476230;28;20064;-75
2023/04/12 15:34:24;;;;;;;4.80;4.38;;;;;;;12.36;65.34;98516.13;10478958;28;20055;-75
2023/04/12 15:39:27;;;;;;;4.97;4.47;;;;;;;11.80;65.90;98526.25;10461701;28;20232;-75
2023/04/12 15:44:31;;;;;;;4.72;4.18;;;;;;;11.61;65.21;98535.63;10479693;28;20044;-75
2023/04/12 15:49:34;;;;;;;4.90;4.20;;;;;;;11.70;63.63;98543.44;10471986;28;20048;-75
2023/04/12 15:54:40;;;;;;;3.63;3.33;;;;;;;11.15;63.08;98544.34;10476121;28;20611;-74
2023/04/12 15:59:48;;;;;;;3.72;3.42;;;;;;;11.55;62.32;98537.16;10485198;28;20109;-74
2023/04/12 16:04:54;;;;;;;4.00;3.70;;;;;;;11.78;61.85;98530.97;10466118;28;20048;-75
2023/04/12 16:09:57;;;;;;;2.20;2.00;;;;;;;11.60;58.78;98520.47;10469567;28;20490;-75
2023/04/12 16:15:02;;;;;;;1.73;1.60;;;;;;;11.47;59.69;98537.19;10475104;28;20045;-74
2023/04/12 16:20:06;;;;;;;1.75;1.38;;;;;;;11.33;57.38;98543.31;10473039;28;20054;-75
2023/04/12 16:25:10;;;;;;;1.67;1.15;;;;;;;11.53;57.81;98549.09;10476673;28;20470;-74
2023/04/12 16:30:15;;;;;;;2.40;1.30;;;;;;;11.16;57.70;98547.88;10464482;28;20080;-74
2023/04/12 16:35:18;;;;;;;2.67;1.08;;;;;;;10.59;58.81;98559.56;10473252;28;20048;-74
2023/04/12 16:40:23;;;;;;;4.72;1.35;;;;;;;10.85;59.20;98570.09;10475974;28;20052;-74
2023/04/12 16:45:27;;;;;;;7.05;2.60;;;;;;;8.98;67.43;98606.97;10481264;28;20053;-74
2023/04/12 16:50:30;;;;;;;4.70;1.75;;;;;;;7.39;76.01;98634.25;10473230;28;20040;-74
2023/04/12 16:55:33;;;;;;;4.15;1.75;;;;;;;6.85;81.42;98633.13;10481485;28;20101;-74
2023/04/12 17:00:37;;;;;;;5.50;2.28;;;;;;;6.47;85.57;98653.50;10467000;28;20050;-75
2023/04/12 17:05:41;;;;;;;9.55;2.83;;;;;;;6.85;83.94;98647.28;10486315;28;20057;-75
2023/04/12 17:10:44;;;;;;;10.52;3.00;;;;;;;6.77;83.89;98651.66;10478027;28;21164;-75
2023/04/12 17:15:48;;;;;;;5.68;2.45;;;;;;;6.94;82.23;98655.47;10477031;28;20680;-74
2023/04/12 17:20:50;;;;;;;4.82;2.40;;;;;;;7.12;81.48;98655.56;10483850;28;20121;-74
2023/04/12 17:25:53;;;;;;;4.93;2.40;;;;;;;6.99;79.58;98666.56;10467476;28;20048;-76
2023/04/12 17:30:57;;;;;;;4.32;2.17;;;;;;;7.09;79.06;98675.41;10478067;28;20105;-75
2023/04/12 17:36:01;;;;;;;6.57;2.08;;;;;;;6.70;78.77;98693.25;10475114;28;20044;-76
2023/04/12 17:41:04;;;;;;;4.22;1.88;;;;;;;6.92;78.33;98705.50;10475536;28;20040;-76
2023/04/12 17:46:09;;;;;;;8.68;2.15;;;;;;;7.17;78.05;98714.72;10486315;28;20049;-76
2023/04/12 17:51:11;;;;;;;5.22;2.50;;;;;;;6.94;78.66;98727.53;10475935;28;20106;-76
2023/04/12 17:56:14;;;;;;;6.68;2.58;;;;;;;7.09;77.43;98739.47;10472876;28;20490;-76
2023/04/12 18:01:18;;;;;;;7.40;2.28;;;;;;;7.14;77.30;98752.41;10490467;28;20197;-76
2023/04/12 18:06:22;;;;;;;12.27;3.17;;;;;;;7.14;77.90;98769.25;10494412;28;20074;-75
2023/04/12 18:11:25;;;;;;;6.80;2.90;;;;;;;6.94;77.74;98776.44;10480333;28;20040;-75
2023/04/12 18:16:30;;;;;;;7.82;3.13;;;;;;;7.46;78.01;98768.94;10479028;28;20387;-75
2023/04/12 18:21:34;;;;;;;5.85;2.97;;;;;;;7.53;78.82;98769.19;10478566;28;20063;-75
2023/04/12 18:26:37;;;;;;;9.75;3.00;;;;;;;7.37;78.11;98760.94;10495106;28;20877;-75
2023/04/12 18:31:42;;;;;;;9.27;3.47;;;;;;;7.17;78.24;98752.97;10495535;28;20055;-75
2023/04/12 18:36:45;;;;;;;9.35;3.13;;;;;;;7.11;78.64;98752.69;10493025;28;20052;-75
2023/04/12 18:41:48;;;;;;;11.80;3.72;;;;;;;6.74;77.99;98748.00;10499904;28;20188;-76
2023/04/12 18:46:52;;;;;;;13.00;3.72;;;;;;;6.84;77.94;98738.19;10490205;28;20048;-76
2023/04/12 18:51:57;;;;;;;7.00;3.03;;;;;;;6.81;77.71;98749.16;10490891;28;20120;-75
2023/04/12 18:57:02;;;;;;;11.60;4.28;;;;;;;6.78;77.61;98768.13;10498761;28;20495;-75
2023/04/12 19:02:06;;;;;;;17.10;5.07;;;;;;;6.68;77.96;98775.25;10487704;28;20059;-76
2023/04/12 19:07:09;;;;;;;8.07;3.83;;;;;;;6.74;77.41;98767.53;10493566;28;20490;-76
2023/04/12 19:12:12;;;;;;;7.68;3.65;;;;;;;6.76;77.39;98768.25;10492965;28;20045;-75
2023/04/12 19:17:16;;;;;;;10.95;3.58;;;;;;;6.71;77.40;98775.81;10470680;28;20140;-75
2023/04/12 19:22:19;;;;;;;12.50;4.05;;;;;;;6.67;77.96;98779.75;10497833;28;20052;-75
2023/04/12 19:27:22;;;;;;;8.88;4.70;;;;;;;6.62;78.09;98784.66;10490165;28;20054;-76
2023/04/12 19:32:27;;;;;;;15.65;4.10;;;;;;;6.46;78.28;98781.69;10496002;28;20040;-75
2023/04/12 19:37:32;;;;;;;11.38;3.92;;;;;;;6.32;77.85;98782.91;10496188;28;20052;-76
2023/04/12 19:42:35;;;;;;;13.93;4.53;;;;;;;6.53;77.27;98786.34;10485836;28;20063;-77
2023/04/12 19:47:43;;;;;;;9.63;3.75;;;;;;;6.50;76.88;98775.06;10478739;28;20109;-76
2023/04/12 19:52:47;;;;;;;13.15;3.55;;;;;;;6.58;76.35;98769.91;10487570;28;20044;-76
2023/04/12 19:57:50;;;;;;;11.77;3.60;;;;;;;6.65;76.57;98778.22;10472820;28;20520;-76
2023/04/12 20:02:55;;;;;;;12.50;3.65;;;;;;;6.67;76.81;98776.25;10464793;28;20108;-76
2023/04/12 20:07:57;;;;;;;14.13;4.10;;;;;;;6.61;76.92;98796.31;10475759;28;20214;-75
2023/04/12 20:13:00;;;;;;;12.43;4.60;;;;;;;6.55;77.15;98800.34;10480894;28;20138;-76
2023/04/12 20:18:05;;;;;;;10.75;4.80;;;;;;;6.48;77.29;98787.72;10489001;28;20053;-76
2023/04/12 20:23:08;;;;;;;10.52;5.95;;;;;;;6.44;76.91;98796.97;10481940;28;20059;-76
2023/04/12 20:28:12;;;;;;;10.90;5.20;;;;;;;6.44;76.91;98794.31;10472186;28;20052;-76
2023/04/12 20:33:16;;;;;;;16.60;5.53;;;;;;;6.46;76.78;98795.03;10495623;28;20092;-75
2023/04/12 20:38:19;;;;;;;12.23;5.55;;;;;;;6.50;76.48;98804.41;10484723;28;20036;-74
2023/04/12 20:43:22;;;;;;;10.95;5.03;;;;;;;6.48;76.51;98788.56;10491199;28;20078;-76
2023/04/12 20:48:26;;;;;;;18.85;6.25;;;;;;;6.43;75.39;98805.97;10486740;28;20048;-76
2023/04/12 20:53:29;;;;;;;10.43;4.50;;;;;;;6.44;74.28;98799.63;10489084;28;20055;-76
2023/04/12 20:58:33;;;;;;;9.93;4.05;;;;;;;6.37;73.42;98796.69;10478600;28;20086;-76
2023/04/12 21:03:39;;;;;;;10.95;3.78;;;;;;;6.26;72.72;98796.78;10525350;28;20068;-76
2023/04/12 21:08:43;;;;;;;10.60;3.75;;;;;;;6.22;72.40;98793.53;10550429;22;20048;-77
2023/04/12 21:13:46;;;;;;;9.75;4.60;;;;;;;6.22;72.26;98792.69;10558586;28;20039;-76
2023/04/12 21:18:52;;;;;;;10.75;4.70;;;;;;;6.20;72.45;98792.84;10570489;28;20047;-77
2023/04/12 21:23:54;;;;;;;12.50;5.10;;;;;;;6.05;72.88;98796.84;10559450;28;20067;-76
2023/04/12 21:28:57;;;;;;;12.10;5.43;;;;;;;6.02;72.99;98784.63;10553917;28;20074;-76
2023/04/12 21:34:02;;;;;;;8.88;4.90;;;;;;;6.03;72.99;98782.81;10544378;28;20046;-77
2023/04/12 21:39:06;;;;;;;13.00;4.40;;;;;;;5.98;72.52;98785.03;10539411;28;20028;-77
2023/04/12 21:44:11;;;;;;;11.60;4.68;;;;;;;5.88;72.31;98785.84;10555816;28;20119;-77
2023/04/12 21:49:15;;;;;;;8.38;4.20;;;;;;;5.79;72.33;98789.31;10552108;28;20048;-76
2023/04/12 21:54:19;;;;;;;12.90;4.68;;;;;;;5.73;72.78;98792.47;10541405;28;20063;-76
2023/04/12 21:59:22;;;;;;;12.15;6.43;;;;;;;5.77;72.47;98783.25;10551209;28;20456;-77
2023/04/12 22:04:26;;;;;;;8.25;5.55;;;;;;;5.75;72.65;98779.03;10547209;28;20093;-77
2023/04/12 22:09:29;;;;;;;14.75;6.43;;;;;;;5.71;72.95;98773.16;10550111;28;20134;-76
2023/04/12 22:14:32;;;;;;;13.60;7.78;;;;;;;5.65;73.08;98785.16;10548979;28;20123;-77
2023/04/12 22:19:36;;;;;;;16.55;7.75;;;;;;;5.66;73.40;98775.34;10551790;28;20051;-77
2023/04/12 22:24:39;;;;;;;21.58;8.50;;;;;;;5.60;73.71;98778.56;10549662;28;20651;-75
2023/04/12 22:29:42;;;;;;;14.90;9.32;;;;;;;5.62;73.70;98774.78;10546121;28;20068;-77
2023/04/12 22:34:46;;;;;;;17.88;9.63;;;;;;;5.63;73.93;98783.63;10556257;28;20052;-76
2023/04/12 22:40:00;;;;;;;20.08;10.35;;;;;;;5.75;73.29;98789.69;10545110;28;20039;-76
2023/04/12 22:45:06;;;;;;;21.67;9.55;;;;;;;5.66;73.41;98786.84;10544108;28;20123;-77
2023/04/12 22:50:11;;;;;;;19.23;10.45;;;;;;;5.73;73.07;98782.69;10540286;28;20058;-77
2023/04/12 22:55:15;;;;;;;14.02;8.80;;;;;;;5.71;72.60;98781.97;10549717;28;20094;-76
2023/04/12 23:00:18;;;;;;;12.43;8.40;;;;;;;5.68;72.37;98776.91;10539032;28;20131;-77
2023/04/12 23:05:23;;;;;;;17.17;8.07;;;;;;;5.62;72.38;98774.78;10553459;28;20043;-80
2023/04/12 23:10:26;;;;;;;10.98;7.57;;;;;;;5.71;71.82;98778.47;10546900;28;20127;-77
2023/04/12 23:15:30;;;;;;;14.23;6.65;;;;;;;5.68;71.51;98773.41;10536558;28;20044;-77
2023/04/12 23:20:35;;;;;;;11.55;6.00;;;;;;;5.67;71.01;98761.88;10556633;28;20063;-77
2023/04/12 23:25:38;;;;;;;12.80;6.57;;;;;;;5.62;71.00;98768.59;10552374;28;20092;-76
2023/04/12 23:30:43;;;;;;;11.93;6.28;;;;;;;5.57;71.35;98753.03;10524948;28;20117;-76
2023/04/12 23:35:50;;;;;;;11.15;5.82;;;;;;;5.49;71.32;98748.34;10548586;28;20089;-76
2023/04/12 23:40:54;;;;;;;10.15;5.55;;;;;;;5.49;71.25;98743.03;10557391;28;20059;-76
2023/04/12 23:45:57;;;;;;;6.82;4.97;;;;;;;5.61;70.63;98757.09;10535759;28;20508;-76
2023/04/12 23:51:01;;;;;;;12.13;4.60;;;;;;;5.41;71.27;98766.81;10542600;28;20036;-76